• Join FlightAware (Why Join?)
  • Login
  • US Flag 
03:57AM EDT


 

Airport Tracker/Info


-or-


 

Live Flight TrackerFlight Track Log ✈ TSU216 ✈ 17-May-2013 ✈ KPTK - MMHO / HMO

Flight Track Log - Related Links

Times and Time Zones

All times are in EDT time to prevent confusion due to time zone crossing. See the TSU216 flight status page for this flight to view local times or setup timezone preferences in your user account.

Time Position Orientation Groundspeed Altitude Reporting Facility
EDT Latitude Longitude Course Direction KTS MPH feet Rate Location/Type
09:11PM 42.6656 -83.3983 121° Southeast 142 163 1,700  Level Cleveland Center
09:12PM 42.6417 -83.3436 121° Southeast 217 250 3,300 1,440 Climbing Cleveland Center
09:13PM 42.6150 -83.4158 243° Southwest 260 299 5,000 2,880 Climbing Cleveland Center
09:14PM 42.5939 -83.5136 254° West 256 295 8,900 3,180 Climbing Cleveland Center
09:15PM 42.5664 -83.6025 247° West 283 326 11,700 2,100 Climbing Cleveland Center
09:16PM 42.5383 -83.7197 252° West 304 350 13,300 2,160 Climbing Cleveland Center
09:17PM 42.5056 -83.8475 251° West 339 390 16,100 2,700 Climbing Cleveland Center
09:18PM 42.4722 -83.9894 252° West 372 428 18,700 2,700 Climbing Cleveland Center
09:19PM 42.4386 -84.1342 253° West 392 451 21,500 2,400 Climbing Cleveland Center
09:21PM 42.4308 -84.5053 268° West 420 483 27,000 1,980 Climbing Chicago Center
09:22PM 42.4367 -84.6686 273° West 434 499 28,600 1,680 Climbing Chicago Center
09:23PM 42.4411 -84.8353 272° West 443 510 30,500 2,220 Climbing Chicago Center
09:24PM 42.4486 -85.0342 273° West 441 507 33,200 1,980 Climbing Chicago Center
09:25PM 42.4497 -85.1997 271° West 440 506 34,600 1,200 Climbing Chicago Center
09:26PM 42.4550 -85.3644 273° West 439 505 35,700 660 Climbing Chicago Center
09:27PM 42.4617 -85.5289 273° West 438 504 36,000 120 Climbing Chicago Center
09:29PM 42.4400 -85.6847 259° West 446 513 36,000  Level Chicago Center
09:30PM 42.3686 -85.8172 234° Southwest 441 507 36,000  Level Chicago Center
09:31PM 42.3083 -85.9581 240° Southwest 435 501 36,000  Level Chicago Center
09:32PM 42.2506 -86.1164 244° Southwest 436 502 36,000  Level Chicago Center
09:33PM 42.1978 -86.2653 244° Southwest 441 507 36,000  Level Chicago Center
09:34PM 42.1367 -86.4439 245° Southwest 440 506 36,000  Level Chicago Center
09:35PM 42.0831 -86.5936 244° Southwest 445 512 36,000  Level Chicago Center
09:36PM 42.0297 -86.7461 245° Southwest 442 509 36,000  Level Chicago Center
09:37PM 41.9747 -86.8953 244° Southwest 450 518 36,000  Level Chicago Center
09:38PM 41.9172 -87.0431 242° Southwest 451 519 36,000  Level Chicago Center
09:39PM 41.8603 -87.1908 243° Southwest 451 519 36,000  Level Chicago Center
09:40PM 41.7900 -87.3689 242° Southwest 455 524 36,000  Level Chicago Center
09:41PM 41.7319 -87.5158 242° Southwest 451 519 36,000  Level Chicago Center
09:42PM 41.6739 -87.6614 242° Southwest 449 517 36,000  Level Chicago Center
09:43PM 41.6167 -87.8131 243° Southwest 457 526 36,000  Level Chicago Center
09:44PM 41.5586 -87.9608 242° Southwest 458 527 36,000  Level Chicago Center
09:45PM 41.4956 -88.1272 243° Southwest 469 540 36,000  Level Chicago Center
09:46PM 41.4331 -88.2822 242° Southwest 458 527 36,000  Level Chicago Center
09:47PM 41.3733 -88.4297 242° Southwest 458 527 36,000  Level Chicago Center
09:48PM 41.3139 -88.5767 242° Southwest 455 524 36,000  Level Chicago Center
09:49PM 41.2408 -88.7525 241° Southwest 457 526 36,000  Level Chicago Center
09:50PM 41.1831 -88.9000 243° Southwest 454 522 36,000  Level Chicago Center
09:51PM 41.1233 -89.0464 242° Southwest 454 522 36,000  Level Chicago Center
09:52PM 41.0656 -89.1933 242° Southwest 452 520 36,000  Level Chicago Center
09:53PM 41.0044 -89.3389 241° Southwest 454 522 36,000  Level Chicago Center
09:54PM 40.9436 -89.4833 241° Southwest 452 520 36,000  Level Chicago Center
09:55PM 40.8725 -89.6517 241° Southwest 444 511 36,000  Level Chicago Center
09:56PM 40.8139 -89.7953 242° Southwest 444 511 36,000  Level Chicago Center
09:57PM 40.7536 -89.9364 241° Southwest 444 511 36,000  Level Chicago Center
09:58PM 40.6925 -90.0775 240° Southwest 445 512 36,000  Level Chicago Center
09:59PM 40.6333 -90.2186 241° Southwest 446 513 36,000  Level Chicago Center
10:00PM 40.5650 -90.3842 242° Southwest 447 514 36,000  Level Chicago Center
10:01PM 40.5036 -90.5261 240° Southwest 449 517 36,000  Level Chicago Center
10:03PM 40.4425 -90.6683 241° Southwest 448 516 36,000  Level Chicago Center
10:04PM 40.3808 -90.8114 241° Southwest 448 516 36,000  Level Chicago Center
10:04PM 40.3175 -90.9544 240° Southwest 452 520 36,000  Level Kansas City Center
10:05PM 40.2611 -91.0836 240° Southwest 453 521 36,000  Level Kansas City Center
10:07PM 40.1994 -91.2256 240° Southwest 453 521 36,000  Level Kansas City Center
10:08PM 40.1361 -91.3694 240° Southwest 456 525 36,000  Level Kansas City Center
10:09PM 40.0686 -91.5081 238° Southwest 456 525 36,000  Level Kansas City Center
10:10PM 39.9869 -91.6772 238° Southwest 460 529 36,000  Level Kansas City Center
10:11PM 39.9231 -91.8206 240° Southwest 461 531 36,000  Level Kansas City Center
10:12PM 39.8625 -91.9631 241° Southwest 455 524 36,000  Level Kansas City Center
10:13PM 39.8017 -92.1064 241° Southwest 454 522 36,000  Level Kansas City Center
10:14PM 39.7414 -92.2483 241° Southwest 451 519 36,000  Level Kansas City Center
10:15PM 39.6781 -92.3919 240° Southwest 456 525 36,000  Level Kansas City Center
10:16PM 39.6147 -92.5317 240° Southwest 454 522 36,000  Level Kansas City Center
10:17PM 39.5494 -92.6717 239° Southwest 455 524 36,000  Level Kansas City Center
10:18PM 39.4850 -92.8114 239° Southwest 453 521 36,000  Level Kansas City Center
10:19PM 39.4056 -92.9781 238° Southwest 455 524 36,000  Level Kansas City Center
10:20PM 39.3389 -93.1158 238° Southwest 456 525 36,000  Level Kansas City Center
10:21PM 39.2742 -93.2569 239° Southwest 458 527 36,000  Level Kansas City Center
10:22PM 39.2033 -93.4114 239° Southwest 459 528 36,000  Level Kansas City Center
10:23PM 39.1408 -93.5478 239° Southwest 460 529 36,000  Level Kansas City Center
10:24PM 39.0764 -93.6831 238° Southwest 461 531 36,000  Level Kansas City Center
10:25PM 39.0017 -93.8408 239° Southwest 462 532 36,000  Level Kansas City Center
10:26PM 38.9322 -93.9711 236° Southwest 461 531 36,000  Level Kansas City Center
10:27PM 38.8661 -94.1053 238° Southwest 463 533 36,000  Level Kansas City Center
10:28PM 38.7928 -94.2611 239° Southwest 458 527 36,000  Level Kansas City Center
10:29PM 38.7297 -94.3964 239° Southwest 459 528 36,000  Level Kansas City Center
10:30PM 38.6667 -94.5303 239° Southwest 458 527 36,000  Level Kansas City Center
10:31PM 38.5917 -94.6853 238° Southwest 456 525 36,000  Level Kansas City Center
10:32PM 38.5267 -94.8189 238° Southwest 459 528 36,000  Level Kansas City Center
10:33PM 38.4614 -94.9514 238° Southwest 461 531 36,000  Level Kansas City Center
10:34PM 38.3842 -95.1072 238° Southwest 462 532 36,000  Level Kansas City Center
10:35PM 38.3175 -95.2386 237° Southwest 460 529 36,000  Level Kansas City Center
10:36PM 38.2406 -95.3947 238° Southwest 464 534 36,000  Level Kansas City Center
10:37PM 38.1731 -95.5281 237° Southwest 466 536 36,000  Level Kansas City Center
10:38PM 38.1078 -95.6592 238° Southwest 462 532 36,000  Level Kansas City Center
10:39PM 38.0308 -95.8136 238° Southwest 463 533 36,000  Level Kansas City Center
10:40PM 37.9656 -95.9453 238° Southwest 461 531 36,000  Level Kansas City Center
10:41PM 37.8914 -96.0900 237° Southwest 465 535 36,000  Level Kansas City Center
10:42PM 37.8253 -96.2172 237° Southwest 460 529 36,000  Level Kansas City Center
10:43PM 37.7547 -96.3525 237° Southwest 460 529 36,000  Level Kansas City Center
10:44PM 37.6844 -96.4856 236° Southwest 456 525 36,000  Level Kansas City Center
10:45PM 37.6139 -96.6183 236° Southwest 454 522 36,000  Level Kansas City Center
10:46PM 37.5428 -96.7525 236° Southwest 458 527 36,000  Level Kansas City Center
10:47PM 37.4739 -96.8864 237° Southwest 456 525 36,000  Level Kansas City Center
10:48PM 37.4044 -97.0206 237° Southwest 457 526 36,000  Level Kansas City Center
10:49PM 37.3331 -97.1531 236° Southwest 456 525 36,000  Level Kansas City Center
10:50PM 37.2636 -97.2850 237° Southwest 454 522 36,000  Level Kansas City Center
10:51PM 37.1806 -97.4442 237° Southwest 453 521 36,000  Level Kansas City Center
10:52PM 37.1111 -97.5719 236° Southwest 448 516 36,000  Level Kansas City Center
10:53PM 37.0414 -97.7047 237° Southwest 451 519 36,000  Level Kansas City Center
10:54PM 36.9706 -97.8342 236° Southwest 451 519 36,000  Level Kansas City Center
10:55PM 36.9003 -97.9647 236° Southwest 452 520 36,000  Level Kansas City Center
10:56PM 36.8294 -98.0964 236° Southwest 454 522 36,000  Level Kansas City Center
10:57PM 36.7522 -98.2367 236° Southwest 451 519 36,000  Level Kansas City Center
10:58PM 36.6817 -98.3686 236° Southwest 454 522 36,000  Level Kansas City Center
11:00PM 36.6103 -98.4992 236° Southwest 456 525 36,000  Level Kansas City Center
11:01PM 36.5386 -98.6283 235° Southwest 455 524 36,000  Level Kansas City Center
11:02PM 36.4678 -98.7556 235° Southwest 451 519 36,000  Level Kansas City Center
11:03PM 36.3958 -98.8839 235° Southwest 451 519 36,000  Level Kansas City Center
11:04PM 36.3256 -99.0103 235° Southwest 449 517 36,000  Level Kansas City Center
11:05PM 36.2547 -99.1361 235° Southwest 448 516 36,000  Level Kansas City Center
11:06PM 36.1842 -99.2617 235° Southwest 447 514 36,000  Level Kansas City Center
11:07PM 36.1156 -99.3844 235° Southwest 447 514 36,000  Level Kansas City Center
11:08PM 35.9756 -99.6322 235° Southwest 443 510 36,000  Level Albuquerque Center
11:10PM 35.9053 -99.7558 235° Southwest 442 509 36,000  Level Albuquerque Center
11:11PM 35.8350 -99.8786 235° Southwest 439 505 36,000  Level Albuquerque Center
11:12PM 35.7647 -100.0031 235° Southwest 441 507 36,000  Level Albuquerque Center
11:13PM 35.6925 -100.1250 234° Southwest 441 507 36,000  Level Albuquerque Center
11:14PM 35.6208 -100.2475 234° Southwest 441 507 36,000  Level Albuquerque Center
11:15PM 35.5517 -100.3700 235° Southwest 438 504 36,000  Level Albuquerque Center
11:16PM 35.4803 -100.4911 234° Southwest 437 503 36,000  Level Albuquerque Center
11:17PM 35.3981 -100.6344 235° Southwest 430 495 36,000  Level Albuquerque Center
11:18PM 35.3344 -100.7406 234° Southwest 426 490 36,000  Level Albuquerque Center
11:19PM 35.2672 -100.8567 235° Southwest 420 483 36,000  Level Albuquerque Center
11:20PM 35.1958 -100.9700 232° Southwest 419 482 36,000  Level Albuquerque Center
11:21PM 35.1214 -101.0772 230° Southwest 414 476 36,000  Level Albuquerque Center
11:22PM 35.0522 -101.1928 234° Southwest 417 480 36,000  Level Albuquerque Center
11:23PM 34.9867 -101.3081 235° Southwest 413 475 36,000  Level Albuquerque Center
11:24PM 34.9086 -101.4453 235° Southwest 408 470 36,000  Level Albuquerque Center
11:24PM 34.8700 -101.5142 236° Southwest 408 470 36,000  Level Albuquerque Center
11:25PM 34.8033 -101.6278 234° Southwest 409 471 36,000  Level Albuquerque Center
11:26PM 34.7383 -101.7419 235° Southwest 410 472 36,000  Level Albuquerque Center
11:27PM 34.6714 -101.8536 234° Southwest 408 470 36,000  Level Albuquerque Center
11:29PM 34.6044 -101.9628 233° Southwest 405 466 36,000  Level Albuquerque Center
11:30PM 34.5383 -102.0728 234° Southwest 403 464 36,000  Level Albuquerque Center
11:31PM 34.4714 -102.1814 233° Southwest 403 464 36,000  Level Albuquerque Center
11:32PM 34.4036 -102.2900 233° Southwest 403 464 36,000  Level Albuquerque Center
11:33PM 34.3369 -102.3992 234° Southwest 403 464 36,000  Level Albuquerque Center
11:34PM 34.2711 -102.5058 233° Southwest 399 459 36,000  Level Albuquerque Center
11:35PM 34.2011 -102.6178 233° Southwest 399 459 36,000  Level Albuquerque Center
11:36PM 34.1353 -102.7250 233° Southwest 400 460 36,000  Level Albuquerque Center
11:37PM 34.0694 -102.8314 233° Southwest 398 458 36,000  Level Albuquerque Center
11:38PM 34.0025 -102.9389 233° Southwest 400 460 36,000  Level Albuquerque Center
11:39PM 33.9228 -103.0661 233° Southwest 399 459 36,000  Level Albuquerque Center
11:40PM 33.8558 -103.1725 233° Southwest 398 458 36,000  Level Albuquerque Center
11:41PM 33.7883 -103.2803 233° Southwest 402 463 36,000  Level Albuquerque Center
11:42PM 33.7222 -103.3892 234° Southwest 403 464 36,000  Level Albuquerque Center
11:43PM 33.6558 -103.4989 234° Southwest 405 466 36,000  Level Albuquerque Center
11:44PM 33.5903 -103.6081 234° Southwest 406 467 36,000  Level Albuquerque Center
11:45PM 33.5167 -103.7350 235° Southwest 402 463 36,000  Level Albuquerque Center
11:46PM 33.4514 -103.8442 234° Southwest 402 463 36,000  Level Albuquerque Center
11:47PM 33.3869 -103.9536 235° Southwest 403 464 36,000  Level Albuquerque Center
11:48PM 33.3161 -104.0717 234° Southwest 405 466 36,000  Level Albuquerque Center
11:49PM 33.2519 -104.1803 235° Southwest 401 461 36,000  Level Albuquerque Center
11:50PM 33.1856 -104.2914 234° Southwest 407 468 36,000  Level Albuquerque Center
11:51PM 33.1197 -104.4022 235° Southwest 407 468 36,000  Level Albuquerque Center
11:52PM 33.0408 -104.4986 226° Southwest 407 468 36,000  Level Albuquerque Center
11:53PM 32.9489 -104.5958 222° Southwest 408 470 36,000  Level Albuquerque Center
11:54PM 32.8664 -104.6886 223° Southwest 407 468 36,000  Level Albuquerque Center
11:55PM 32.7856 -104.7828 224° Southwest 406 467 36,000  Level Albuquerque Center
11:56PM 32.7042 -104.8797 225° Southwest 411 473 36,000  Level Albuquerque Center
11:57PM 32.6214 -104.9794 225° Southwest 404 465 36,000  Level Albuquerque Center
11:58PM 32.5425 -105.0808 227° Southwest 414 476 36,000  Level Albuquerque Center
11:59PM 32.4617 -105.1758 225° Southwest 412 474 36,000 -60 Level Albuquerque Center
12:00AM 32.3797 -105.2719 225° Southwest 414 476 35,900 300 Descending Albuquerque Center
12:01AM 32.3000 -105.3661 225° Southwest 410 472 36,700 480 Climbing Albuquerque Center
12:02AM 32.2222 -105.4569 225° Southwest 401 461 36,900 60 Climbing Albuquerque Center
12:03AM 32.1450 -105.5456 224° Southwest 392 451 36,900  Level Albuquerque Center
12:04AM 32.0656 -105.6344 223° Southwest 395 455 36,900  Level Albuquerque Center
12:05AM 31.9875 -105.7264 225° Southwest 397 457 37,000  Climbing Albuquerque Center
12:06AM 31.9297 -105.8658 244° Southwest 411 473 36,900  Descending Albuquerque Center
12:07AM 31.8964 -105.9903 253° West 403 464 37,000  Climbing Albuquerque Center
12:08AM 31.8625 -106.1153 252° West 403 464 37,000 -60 Level Albuquerque Center
12:09AM 31.8297 -106.2406 253° West 402 463 36,900 -60 Descending Albuquerque Center
12:10AM 31.7661 -106.3481 235° Southwest 424 488 36,900  Level Albuquerque Center
12:11AM 31.6667 -106.4094 208° Southwest 411 473 37,000 60 Climbing Albuquerque Center
12:13AM 31.5795 -106.5244 240° Southwest  Level FlightAware Approximate
12:20AM 31.1590 -107.3325 239° Southwest  Level FlightAware Approximate
12:21AM 31.0983 -107.4472 238° Southwest  Level FlightAware Approximate
12:22AM 31.0375 -107.5618 238° Southwest  Level FlightAware Approximate
12:23AM 30.9767 -107.6762 238° Southwest  Level FlightAware Approximate
12:24AM 30.9157 -107.7905 238° Southwest  Level FlightAware Approximate
12:25AM 30.8547 -107.9046 238° Southwest  Level FlightAware Approximate
12:26AM 30.7935 -108.0186 238° Southwest  Level FlightAware Approximate
12:27AM 30.7323 -108.1325 238° Southwest  Level FlightAware Approximate
12:28AM 30.6709 -108.2462 238° Southwest  Level FlightAware Approximate
12:29AM 30.6094 -108.3598 238° Southwest  Level FlightAware Approximate
12:30AM 30.5479 -108.4732 238° Southwest  Level FlightAware Approximate
12:31AM 30.4816 -108.5828 234° Southwest  Level FlightAware Approximate
12:32AM 30.4160 -108.6929 236° Southwest  Level FlightAware Approximate
12:33AM 30.3536 -108.8055 238° Southwest  Level FlightAware Approximate
12:34AM 30.2926 -108.9191 238° Southwest  Level FlightAware Approximate
12:35AM 30.2315 -109.0325 238° Southwest  Level FlightAware Approximate
12:36AM 30.1703 -109.1457 238° Southwest  Level FlightAware Approximate
12:37AM 30.1080 -109.2467 245° Southwest  Level FlightAware Approximate
12:38AM 30.0459 -109.3589 236° Southwest  Level FlightAware Approximate
12:39AM 29.9810 -109.4692 236° Southwest  Level FlightAware Approximate
12:40AM 29.9223 -109.5831 249° West  Level FlightAware Approximate
12:41AM 29.8590 -109.6938 235° Southwest  Level FlightAware Approximate
12:42AM 29.7922 -109.8023 235° Southwest  Level FlightAware Approximate
12:43AM 29.7334 -109.9167 240° Southwest  Level FlightAware Approximate
12:44AM 29.6739 -110.0305 237° Southwest  Level FlightAware Approximate
12:45AM 29.6117 -110.1424 237° Southwest  Level FlightAware Approximate
12:46AM 29.5495 -110.2543 237° Southwest  Level FlightAware Approximate
12:47AM 29.4814 -110.3613 233° Southwest  Level FlightAware Approximate
12:48AM 29.4142 -110.4689 238° Southwest  Level FlightAware Approximate
12:49AM 29.3536 -110.5816 238° Southwest  Level FlightAware Approximate
12:50AM 29.2892 -110.6913 233° Southwest  Level FlightAware Approximate
12:51AM 29.2191 -110.7964 233° Southwest  Level FlightAware Approximate
12:52AM 29.1678 -110.9092 236° Southwest  Level FlightAware Approximate
12:53AM 29.0978 -111.0141 229° Southwest  Level FlightAware Approximate
12:54AM 29.1000 -111.0500 319° Northwest  Level FlightAware Approximate
12:55AM 29.0959 -111.0479 319° Northwest  Level Estimated
12:56AM 29.1000 -111.0500 319° Northwest  Level FlightAware Approximate
12:57AM 29.0959 -111.0479 319° Northwest  Level Estimated
12:58AM 29.1000 -111.0500 319° Northwest  Level FlightAware Approximate
12:59AM 29.0959 -111.0479 319° Northwest  Level Estimated
01:00AM 29.1000 -111.0500 319° Northwest  Level FlightAware Approximate
01:01AM 29.0959 -111.0479 319° Northwest  Level Estimated
01:02AM 29.1000 -111.0500 319° Northwest  Level FlightAware Approximate
01:03AM 29.0959 -111.0479 319° Northwest  Level Estimated
01:04AM 29.1000 -111.0500 319° Northwest  Level FlightAware Approximate
01:05AM 29.0959 -111.0479 319° Northwest  Level Estimated
01:06AM 29.1000 -111.0500 319° Northwest  Level FlightAware Approximate
01:07AM 29.0959 -111.0479 319° Northwest  Level Estimated
01:08AM 29.1000 -111.0500 319° Northwest  Level FlightAware Approximate
01:09AM 29.0959 -111.0479 319° Northwest  Level Estimated
01:10AM 29.1000 -111.0500 319° Northwest  Level FlightAware Approximate
01:11AM 29.0959 -111.0479 319° Northwest  Level Estimated
01:12AM 29.1000 -111.0500 319° Northwest  Level FlightAware Approximate
01:13AM 29.0959 -111.0479 319° Northwest  Level Estimated
01:14AM 29.1000 -111.0500 319° Northwest  Level FlightAware Approximate